createdAt,value
2017-12-31T00:00:53.012Z,88.84
2017-12-31T00:01:52.928Z,88.93
2017-12-31T00:03:46.217Z,88.74
2017-12-31T00:04:46.129Z,89.12
2017-12-31T00:06:39.392Z,89.03
2017-12-31T00:07:39.326Z,88.84
2017-12-31T00:09:32.603Z,89.40
2017-12-31T00:10:32.521Z,89.31
2017-12-31T00:12:25.779Z,90.17
2017-12-31T00:13:25.711Z,90.08
2017-12-31T00:15:18.995Z,89.89
2017-12-31T00:16:18.910Z,89.55
2017-12-31T00:18:12.174Z,90.08
2017-12-31T00:19:12.109Z,90.17
2017-12-31T00:21:05.408Z,90.64
2017-12-31T00:22:05.305Z,90.45
2017-12-31T00:23:58.585Z,91.17
2017-12-31T00:24:58.497Z,91.27
2017-12-31T00:26:51.758Z,91.94
2017-12-31T00:27:51.692Z,92.03
2017-12-31T00:29:44.966Z,92.22
2017-12-31T00:30:44.879Z,92.41
2017-12-31T00:32:38.137Z,92.69
2017-12-31T00:33:38.065Z,92.22
2017-12-31T00:35:31.395Z,92.89
2017-12-31T00:36:31.308Z,92.98
2017-12-31T00:38:24.564Z,93.27
2017-12-31T00:39:24.497Z,93.08
2017-12-31T00:41:17.779Z,93.55
2017-12-31T00:42:17.693Z,93.84
2017-12-31T00:44:10.976Z,94.13
2017-12-31T00:45:10.896Z,94.03
2017-12-31T00:47:04.156Z,94.32
2017-12-31T00:48:04.090Z,94.70
2017-12-31T00:49:57.397Z,94.89
2017-12-31T00:50:57.311Z,95.08
2017-12-31T00:52:50.575Z,95.08
2017-12-31T00:53:50.509Z,95.17
2017-12-31T00:55:43.792Z,95.75
2017-12-31T00:56:43.718Z,95.75
2017-12-31T00:58:37.077Z,95.94
2017-12-31T00:59:36.909Z,95.56
2017-12-31T01:01:30.189Z,96.12
2017-12-31T01:02:30.107Z,95.75
2017-12-31T01:04:23.396Z,96.03
2017-12-31T01:05:23.309Z,95.75
2017-12-31T01:07:16.572Z,96.41
2017-12-31T01:08:16.507Z,96.22
2017-12-31T01:10:09.785Z,96.98
2017-12-31T01:11:09.696Z,96.98
2017-12-31T01:13:02.956Z,96.98
2017-12-31T01:14:02.895Z,96.70
2017-12-31T01:15:56.176Z,96.60
2017-12-31T01:16:56.092Z,96.70
2017-12-31T01:18:49.377Z,96.89
2017-12-31T01:19:49.309Z,96.98
2017-12-31T01:21:42.592Z,97.17
2017-12-31T01:22:42.509Z,97.27
2017-12-31T01:24:35.781Z,97.56
2017-12-31T01:25:35.694Z,97.75
2017-12-31T01:27:28.956Z,97.84
2017-12-31T01:28:28.890Z,98.03
2017-12-31T01:30:22.172Z,98.22
2017-12-31T01:31:22.087Z,98.41
2017-12-31T01:33:15.377Z,98.79
2017-12-31T01:34:15.309Z,98.89
2017-12-31T01:36:08.581Z,98.41
2017-12-31T01:37:08.494Z,98.22
2017-12-31T01:39:01.760Z,98.22
2017-12-31T01:40:01.689Z,98.32
2017-12-31T01:41:54.976Z,98.41
2017-12-31T01:42:54.889Z,97.84
2017-12-31T01:44:48.171Z,97.56
2017-12-31T01:45:48.085Z,97.56
2017-12-31T01:47:41.376Z,96.89
2017-12-31T01:48:41.309Z,96.22
2017-12-31T01:50:34.583Z,96.80
2017-12-31T01:51:34.494Z,96.60
2017-12-31T01:53:27.759Z,96.32
2017-12-31T01:54:27.692Z,96.22
2017-12-31T01:56:20.964Z,96.03
2017-12-31T01:57:20.878Z,96.03
2017-12-31T01:59:14.146Z,95.56
2017-12-31T02:00:14.078Z,95.27
2017-12-31T02:02:07.397Z,95.08
2017-12-31T02:03:07.310Z,94.98
2017-12-31T02:05:00.598Z,95.84
2017-12-31T02:06:00.507Z,95.65
2017-12-31T02:07:53.769Z,95.56
2017-12-31T02:08:53.703Z,95.94
2017-12-31T02:10:46.984Z,96.12
2017-12-31T02:11:46.903Z,96.27
2017-12-31T02:13:40.165Z,96.41
2017-12-31T02:14:40.100Z,96.27
2017-12-31T02:16:33.396Z,96.75
2017-12-31T02:17:33.308Z,97.03
2017-12-31T02:19:26.565Z,97.41
2017-12-31T02:20:26.498Z,97.79
2017-12-31T02:22:19.782Z,97.79
2017-12-31T02:23:19.694Z,97.89
2017-12-31T02:25:12.967Z,98.55
2017-12-31T02:26:12.882Z,98.36
2017-12-31T02:28:06.146Z,99.22
2017-12-31T02:29:06.079Z,98.46
2017-12-31T02:30:59.395Z,99.03
2017-12-31T02:31:59.313Z,99.03
2017-12-31T02:33:52.574Z,99.60
2017-12-31T02:34:52.506Z,99.99
2017-12-31T02:36:45.788Z,99.98
2017-12-31T02:37:45.703Z,99.99
2017-12-31T02:39:38.958Z,99.99
2017-12-31T02:40:38.890Z,99.99
2017-12-31T02:42:32.172Z,99.99
2017-12-31T02:43:32.085Z,99.99
2017-12-31T02:45:25.395Z,99.99
2017-12-31T02:46:25.310Z,99.99
2017-12-31T02:48:18.570Z,99.99
2017-12-31T02:49:18.505Z,99.99
2017-12-31T02:51:11.789Z,99.99
2017-12-31T02:52:11.702Z,99.99
2017-12-31T02:54:04.969Z,99.99
2017-12-31T02:55:04.897Z,99.99
2017-12-31T02:56:58.178Z,99.99
2017-12-31T02:57:58.095Z,99.99
2017-12-31T02:59:51.376Z,99.99
2017-12-31T03:00:51.312Z,99.99
2017-12-31T03:02:44.580Z,99.99
2017-12-31T03:03:44.521Z,99.99
2017-12-31T03:05:37.772Z,99.99
2017-12-31T03:06:37.688Z,99.99
2017-12-31T03:08:30.953Z,99.99
2017-12-31T03:09:30.882Z,99.99
2017-12-31T03:11:24.153Z,99.99
2017-12-31T03:12:24.066Z,99.99
2017-12-31T03:14:17.378Z,99.99
2017-12-31T03:15:17.311Z,99.99
2017-12-31T03:17:10.591Z,99.99
2017-12-31T03:18:10.507Z,99.99
2017-12-31T03:20:03.758Z,99.99
2017-12-31T03:21:03.689Z,99.99
2017-12-31T03:22:56.971Z,99.99
2017-12-31T03:23:56.890Z,99.99
2017-12-31T03:25:50.164Z,99.99
2017-12-31T03:26:50.079Z,99.99
2017-12-31T03:28:43.378Z,99.99
2017-12-31T03:29:43.309Z,99.99
2017-12-31T03:31:36.581Z,99.99
2017-12-31T03:32:36.490Z,99.99
2017-12-31T03:34:29.755Z,99.99
2017-12-31T03:35:29.686Z,99.99
2017-12-31T03:37:22.966Z,99.99
2017-12-31T03:38:22.880Z,99.99
2017-12-31T03:40:16.137Z,99.99
2017-12-31T03:41:16.066Z,99.99
2017-12-31T03:43:09.396Z,99.99
2017-12-31T03:44:09.306Z,99.99
2017-12-31T03:46:02.589Z,99.99
2017-12-31T03:47:02.504Z,99.99
2017-12-31T03:48:55.755Z,99.99
2017-12-31T03:49:55.684Z,99.99
2017-12-31T03:51:48.967Z,99.99
2017-12-31T03:52:48.881Z,99.99
2017-12-31T03:54:42.187Z,99.99
2017-12-31T03:55:42.072Z,99.99
2017-12-31T03:57:35.390Z,99.99
2017-12-31T03:58:35.309Z,99.99
2017-12-31T04:00:28.569Z,99.99
2017-12-31T04:01:28.500Z,99.99
2017-12-31T04:03:21.286Z,99.99
2017-12-31T04:04:21.199Z,99.99
2017-12-31T04:06:14.480Z,99.99
2017-12-31T04:07:14.390Z,99.99
2017-12-31T04:09:07.657Z,99.99
2017-12-31T04:10:07.588Z,99.99
2017-12-31T04:12:00.866Z,99.99
2017-12-31T04:13:00.785Z,99.99
2017-12-31T04:14:54.040Z,99.99
2017-12-31T04:15:53.976Z,99.99
2017-12-31T04:17:47.250Z,99.99
2017-12-31T04:18:47.165Z,99.99
2017-12-31T04:20:40.425Z,99.99
2017-12-31T04:21:40.358Z,99.99
2017-12-31T04:23:33.636Z,99.99
2017-12-31T04:24:33.567Z,99.99
2017-12-31T04:26:26.828Z,99.99
2017-12-31T04:27:26.745Z,99.99
2017-12-31T04:29:19.998Z,99.99
2017-12-31T04:30:19.932Z,99.99
2017-12-31T04:32:13.200Z,99.99
2017-12-31T04:33:13.112Z,99.99
2017-12-31T04:35:06.384Z,99.99
2017-12-31T04:36:06.307Z,99.99
2017-12-31T04:37:59.585Z,99.99
2017-12-31T04:38:59.517Z,99.99
2017-12-31T04:40:52.756Z,99.99
2017-12-31T04:41:52.688Z,99.99
2017-12-31T04:43:45.969Z,99.99
2017-12-31T04:44:45.882Z,99.99
2017-12-31T04:46:39.160Z,99.99
2017-12-31T04:47:39.077Z,99.99
2017-12-31T04:49:32.330Z,99.99
2017-12-31T04:50:32.258Z,99.99
2017-12-31T04:52:25.538Z,99.99
2017-12-31T04:53:25.451Z,99.99
2017-12-31T04:55:18.714Z,99.99
2017-12-31T04:56:18.645Z,99.99
2017-12-31T04:58:11.924Z,99.99
2017-12-31T04:59:11.837Z,99.99
2017-12-31T05:01:05.100Z,99.99
2017-12-31T05:02:05.030Z,99.99
2017-12-31T05:03:58.309Z,99.99
2017-12-31T05:04:58.223Z,99.99
2017-12-31T05:06:51.504Z,99.99
2017-12-31T05:07:51.417Z,99.99
2017-12-31T05:09:44.677Z,99.99
2017-12-31T05:10:44.609Z,99.99
2017-12-31T05:12:37.892Z,99.99
2017-12-31T05:13:37.806Z,99.99
2017-12-31T05:15:31.066Z,99.99
2017-12-31T05:16:30.996Z,99.99
2017-12-31T05:18:24.280Z,99.99
2017-12-31T05:19:24.192Z,99.99
2017-12-31T05:21:17.451Z,99.99
2017-12-31T05:22:17.383Z,99.99
2017-12-31T05:24:10.661Z,99.99
2017-12-31T05:25:10.576Z,99.99
2017-12-31T05:27:04.859Z,99.99
2017-12-31T05:28:04.761Z,99.99
2017-12-31T05:29:58.013Z,99.99
2017-12-31T05:30:57.943Z,99.99
2017-12-31T05:32:51.224Z,99.99
2017-12-31T05:33:51.135Z,99.99
2017-12-31T05:35:44.396Z,99.99
2017-12-31T05:36:44.329Z,99.99
2017-12-31T05:38:37.610Z,99.99
2017-12-31T05:39:37.521Z,99.99
2017-12-31T05:41:30.783Z,99.99
2017-12-31T05:42:30.719Z,99.99
2017-12-31T05:44:23.994Z,99.99
2017-12-31T05:45:23.909Z,99.99
2017-12-31T05:47:17.188Z,99.99
2017-12-31T05:48:17.103Z,99.99
2017-12-31T05:50:10.366Z,99.99
2017-12-31T05:51:10.297Z,99.99
2017-12-31T05:53:03.577Z,99.99
2017-12-31T05:54:03.490Z,99.99
2017-12-31T05:55:56.754Z,99.99
2017-12-31T05:56:56.684Z,99.99
2017-12-31T05:58:49.962Z,99.99
2017-12-31T05:59:49.876Z,99.99
2017-12-31T06:01:43.137Z,99.99
2017-12-31T06:02:43.069Z,99.99
2017-12-31T06:04:36.347Z,99.99
2017-12-31T06:05:36.263Z,99.99
2017-12-31T06:07:29.546Z,99.99
2017-12-31T06:08:29.460Z,99.99
2017-12-31T06:10:22.722Z,99.99
2017-12-31T06:11:22.653Z,99.99
2017-12-31T06:13:15.935Z,99.99
2017-12-31T06:14:15.847Z,99.99
2017-12-31T06:16:09.115Z,99.99
2017-12-31T06:17:09.047Z,99.99
2017-12-31T06:19:02.328Z,99.99
2017-12-31T06:20:02.246Z,99.99
2017-12-31T06:21:55.509Z,99.99
2017-12-31T06:22:55.437Z,99.99
2017-12-31T06:24:48.720Z,99.99
2017-12-31T06:25:48.636Z,99.99
2017-12-31T06:27:41.918Z,99.99
2017-12-31T06:28:41.829Z,99.99
2017-12-31T06:30:35.092Z,99.99
2017-12-31T06:31:35.027Z,99.99
2017-12-31T06:33:28.306Z,99.99
2017-12-31T06:34:28.221Z,99.99
2017-12-31T06:36:21.485Z,99.99
2017-12-31T06:37:21.416Z,99.99
2017-12-31T06:39:14.701Z,99.99
2017-12-31T06:40:14.612Z,99.99
2017-12-31T06:42:07.872Z,99.99
2017-12-31T06:43:07.811Z,99.99
2017-12-31T06:45:01.089Z,99.99
2017-12-31T06:46:01.010Z,99.99
2017-12-31T06:47:54.297Z,99.99
2017-12-31T06:48:54.208Z,99.99
2017-12-31T06:50:47.486Z,99.99
2017-12-31T06:51:47.404Z,99.99
2017-12-31T06:53:40.694Z,99.99
2017-12-31T06:54:40.609Z,99.99
2017-12-31T06:56:33.872Z,99.99
2017-12-31T06:57:33.806Z,99.99
2017-12-31T06:59:27.084Z,99.99
2017-12-31T07:00:26.994Z,99.99
2017-12-31T07:02:20.256Z,99.99
2017-12-31T07:03:20.188Z,99.99
2017-12-31T07:05:13.472Z,99.99
2017-12-31T07:06:13.385Z,99.99
2017-12-31T07:08:06.663Z,99.99
2017-12-31T07:09:06.581Z,99.99
2017-12-31T07:10:59.843Z,99.99
2017-12-31T07:11:59.776Z,99.99
2017-12-31T07:13:53.057Z,99.99
2017-12-31T07:14:52.977Z,99.99
2017-12-31T07:16:46.236Z,99.99
2017-12-31T07:17:46.169Z,99.99
2017-12-31T07:19:39.445Z,99.99
2017-12-31T07:20:39.357Z,99.99
2017-12-31T07:22:32.624Z,99.99
2017-12-31T07:23:32.559Z,99.99
2017-12-31T07:25:25.836Z,99.99
2017-12-31T07:26:25.753Z,99.99
2017-12-31T07:28:19.041Z,99.99
2017-12-31T07:29:18.948Z,99.99
2017-12-31T07:31:12.211Z,99.99
2017-12-31T07:32:12.144Z,99.99
2017-12-31T07:34:05.425Z,99.99
2017-12-31T07:35:05.341Z,99.99
2017-12-31T07:36:58.606Z,99.99
2017-12-31T07:37:58.539Z,99.99
2017-12-31T07:39:51.812Z,99.99
2017-12-31T07:40:51.729Z,99.99
2017-12-31T07:42:44.992Z,99.99
2017-12-31T07:43:44.924Z,99.99
2017-12-31T07:45:38.206Z,99.99
2017-12-31T07:46:38.123Z,99.99
2017-12-31T07:48:31.406Z,99.99
2017-12-31T07:49:31.318Z,99.99
2017-12-31T07:51:24.583Z,99.99
2017-12-31T07:52:24.517Z,99.99
2017-12-31T07:54:17.800Z,99.99
2017-12-31T07:55:17.713Z,99.99
2017-12-31T07:57:10.976Z,99.99
2017-12-31T07:58:10.911Z,99.99
2017-12-31T08:00:04.179Z,99.99
2017-12-31T08:01:04.097Z,99.99
2017-12-31T08:02:57.378Z,99.99
2017-12-31T08:03:57.312Z,99.99
2017-12-31T08:05:50.594Z,99.99
2017-12-31T08:06:50.510Z,99.99
2017-12-31T08:08:43.789Z,99.99
2017-12-31T08:09:43.705Z,99.99
2017-12-31T08:11:36.970Z,99.99
2017-12-31T08:12:36.902Z,99.99
2017-12-31T08:14:30.185Z,99.99
2017-12-31T08:15:30.099Z,99.99
2017-12-31T08:17:23.375Z,99.99
2017-12-31T08:18:23.314Z,99.99
2017-12-31T08:20:16.601Z,99.99
2017-12-31T08:21:16.513Z,99.99
2017-12-31T08:23:09.778Z,99.99
2017-12-31T08:24:09.711Z,99.99
2017-12-31T08:26:02.999Z,99.99
2017-12-31T08:27:02.910Z,99.99
2017-12-31T08:28:56.194Z,99.99
2017-12-31T08:29:56.108Z,99.99
2017-12-31T08:31:49.380Z,99.99
2017-12-31T08:32:49.311Z,99.99
2017-12-31T08:34:43.445Z,99.99
2017-12-31T08:35:43.361Z,99.99
2017-12-31T08:37:36.624Z,99.99
2017-12-31T08:38:36.558Z,99.99
2017-12-31T08:40:29.844Z,99.99
2017-12-31T08:41:29.754Z,99.99
2017-12-31T08:43:23.027Z,99.99
2017-12-31T08:44:22.959Z,99.99
2017-12-31T08:46:16.241Z,99.99
2017-12-31T08:47:16.156Z,99.99
2017-12-31T08:49:09.420Z,99.99
2017-12-31T08:50:09.354Z,99.99
2017-12-31T08:52:02.633Z,99.99
2017-12-31T08:53:02.548Z,99.99
2017-12-31T08:54:55.831Z,99.99
2017-12-31T08:55:55.748Z,99.99
2017-12-31T08:57:49.012Z,99.99
2017-12-31T08:58:48.945Z,99.99
2017-12-31T09:00:42.224Z,99.99
2017-12-31T09:01:42.143Z,99.99
2017-12-31T09:03:35.413Z,99.99
2017-12-31T09:04:35.341Z,99.99
2017-12-31T09:06:28.622Z,99.99
2017-12-31T09:07:28.538Z,99.99
2017-12-31T09:09:21.793Z,99.99
2017-12-31T09:10:21.726Z,99.99
2017-12-31T09:12:15.009Z,99.99
2017-12-31T09:13:14.924Z,99.99
2017-12-31T09:15:08.209Z,99.99
2017-12-31T09:16:08.121Z,99.99
2017-12-31T09:18:01.388Z,99.99
2017-12-31T09:19:01.320Z,99.99
2017-12-31T09:20:54.604Z,99.99
2017-12-31T09:21:54.521Z,99.99
2017-12-31T09:23:47.801Z,99.99
2017-12-31T09:24:47.739Z,99.99
2017-12-31T09:26:41.016Z,99.99
2017-12-31T09:27:40.934Z,99.99
2017-12-31T09:29:34.200Z,99.99
2017-12-31T09:30:34.132Z,99.99
2017-12-31T09:32:27.422Z,99.99
2017-12-31T09:33:27.330Z,99.99
2017-12-31T09:35:20.616Z,99.99
2017-12-31T09:36:20.532Z,99.99
2017-12-31T09:38:13.796Z,99.99
2017-12-31T09:39:13.729Z,99.99
2017-12-31T09:41:07.015Z,99.99
2017-12-31T09:42:06.929Z,99.99
2017-12-31T09:44:00.192Z,99.99
2017-12-31T09:45:00.127Z,99.99
2017-12-31T09:46:53.411Z,99.99
2017-12-31T09:47:53.326Z,99.99
2017-12-31T09:49:46.598Z,99.99
2017-12-31T09:50:46.525Z,99.99
2017-12-31T09:52:39.807Z,99.99
2017-12-31T09:53:39.727Z,99.99
2017-12-31T09:55:33.061Z,99.99
2017-12-31T09:56:32.916Z,99.99
2017-12-31T09:58:26.190Z,99.99
2017-12-31T09:59:26.124Z,99.99
2017-12-31T10:01:19.404Z,99.99
2017-12-31T10:02:19.321Z,99.99
2017-12-31T10:04:12.587Z,99.99
2017-12-31T10:05:12.521Z,99.99
2017-12-31T10:07:05.805Z,99.99
2017-12-31T10:08:05.720Z,99.99
2017-12-31T10:09:58.986Z,99.99
2017-12-31T10:10:58.921Z,99.99
2017-12-31T10:12:52.203Z,99.99
2017-12-31T10:13:52.119Z,99.80
2017-12-31T10:15:45.406Z,99.99
2017-12-31T10:16:45.319Z,99.42
2017-12-31T10:18:38.586Z,98.18
2017-12-31T10:19:38.516Z,97.99
2017-12-31T10:21:31.800Z,98.56
2017-12-31T10:22:31.717Z,98.75
2017-12-31T10:24:24.983Z,98.75
2017-12-31T10:25:24.918Z,98.08
2017-12-31T10:27:18.202Z,97.51
2017-12-31T10:28:18.117Z,97.80
2017-12-31T10:30:11.404Z,97.80
2017-12-31T10:31:11.318Z,98.47
2017-12-31T10:33:04.606Z,97.32
2017-12-31T10:34:04.542Z,97.51
2017-12-31T10:35:57.804Z,96.84
2017-12-31T10:36:57.720Z,96.75
2017-12-31T10:38:50.988Z,96.51
2017-12-31T10:39:50.920Z,96.70
2017-12-31T10:41:44.210Z,96.51
2017-12-31T10:42:44.125Z,96.98
2017-12-31T10:44:37.390Z,96.70
2017-12-31T10:45:37.326Z,96.13
2017-12-31T10:47:30.610Z,95.94
2017-12-31T10:48:30.523Z,95.75
2017-12-31T10:50:23.809Z,95.17
2017-12-31T10:51:23.725Z,94.89
2017-12-31T10:53:17.011Z,94.36
2017-12-31T10:54:16.925Z,94.07
2017-12-31T10:56:10.211Z,93.16
2017-12-31T10:57:10.126Z,93.12
2017-12-31T10:59:03.394Z,93.50
2017-12-31T11:00:03.326Z,93.70
2017-12-31T11:01:56.616Z,94.27
2017-12-31T11:02:56.528Z,94.07
2017-12-31T11:04:49.798Z,93.79
2017-12-31T11:05:49.734Z,93.88
2017-12-31T11:07:43.021Z,93.98
2017-12-31T11:08:42.938Z,94.55
2017-12-31T11:10:36.244Z,94.36
2017-12-31T11:11:36.143Z,93.79
2017-12-31T11:13:29.409Z,93.12
2017-12-31T11:14:29.344Z,93.50
2017-12-31T11:16:22.631Z,93.21
2017-12-31T11:17:22.550Z,93.12
2017-12-31T11:19:15.819Z,92.93
2017-12-31T11:20:15.777Z,92.93
2017-12-31T11:22:09.040Z,93.12
2017-12-31T11:23:08.977Z,93.12
2017-12-31T11:25:02.230Z,93.50
2017-12-31T11:26:02.163Z,92.83
2017-12-31T11:27:55.450Z,93.60
2017-12-31T11:28:55.369Z,93.21
2017-12-31T11:30:48.672Z,93.70
2017-12-31T11:31:48.573Z,92.93
2017-12-31T11:33:41.842Z,92.83
2017-12-31T11:34:41.772Z,92.93
2017-12-31T11:36:35.062Z,92.93
2017-12-31T11:37:34.979Z,93.50
2017-12-31T11:39:28.236Z,93.12
2017-12-31T11:40:28.170Z,92.55
2017-12-31T11:42:21.457Z,93.02
2017-12-31T11:43:21.371Z,93.50
2017-12-31T11:45:14.651Z,92.55
2017-12-31T11:46:14.583Z,93.31
2017-12-31T11:48:07.877Z,91.78
2017-12-31T11:49:07.792Z,92.02
2017-12-31T11:51:01.100Z,91.74
2017-12-31T11:52:01.005Z,91.30
2017-12-31T11:53:54.264Z,91.25
2017-12-31T11:54:54.199Z,91.45
2017-12-31T11:56:47.487Z,91.78
2017-12-31T11:57:47.405Z,91.88
2017-12-31T11:59:40.662Z,91.64
2017-12-31T12:00:40.598Z,91.69
2017-12-31T12:02:33.886Z,91.35
2017-12-31T12:03:33.807Z,91.06
2017-12-31T12:05:27.072Z,90.88
2017-12-31T12:06:27.007Z,90.68
2017-12-31T12:08:20.295Z,91.06
2017-12-31T12:09:20.219Z,90.39
2017-12-31T12:11:13.502Z,91.16
2017-12-31T12:12:13.420Z,91.54
2017-12-31T12:14:06.693Z,90.59
2017-12-31T12:15:06.623Z,90.49
2017-12-31T12:16:59.912Z,90.01
2017-12-31T12:17:59.830Z,89.92
2017-12-31T12:19:53.092Z,90.01
2017-12-31T12:20:53.024Z,90.88
2017-12-31T12:22:46.311Z,91.06
2017-12-31T12:23:46.229Z,90.11
2017-12-31T12:25:39.496Z,90.30
2017-12-31T12:26:39.433Z,90.01
2017-12-31T12:28:32.723Z,90.49
2017-12-31T12:29:32.638Z,90.01
2017-12-31T12:31:25.928Z,90.11
2017-12-31T12:32:25.847Z,89.53
2017-12-31T12:34:19.114Z,89.53
2017-12-31T12:35:19.050Z,89.15
2017-12-31T12:37:12.408Z,88.29
2017-12-31T12:38:12.323Z,89.06
2017-12-31T12:40:05.590Z,89.06
2017-12-31T12:41:05.534Z,88.29
2017-12-31T12:42:58.819Z,88.01
2017-12-31T12:43:58.733Z,87.82
2017-12-31T12:45:52.003Z,88.05
2017-12-31T12:46:51.940Z,87.72
2017-12-31T12:48:45.228Z,87.24
2017-12-31T12:49:45.145Z,87.05
2017-12-31T12:51:38.435Z,87.57
2017-12-31T12:52:38.354Z,87.53
2017-12-31T12:54:31.629Z,87.91
2017-12-31T12:55:31.562Z,87.43
2017-12-31T12:57:24.947Z,87.15
2017-12-31T12:58:24.767Z,87.15
2017-12-31T13:00:18.031Z,86.67
2017-12-31T13:01:17.964Z,86.96
2017-12-31T13:03:11.253Z,86.14
2017-12-31T13:04:11.171Z,85.85
2017-12-31T13:06:04.447Z,86.33
2017-12-31T13:07:04.373Z,85.57
2017-12-31T13:08:57.666Z,86.10
2017-12-31T13:09:57.581Z,86.61
2017-12-31T13:11:50.868Z,85.81
2017-12-31T13:12:50.789Z,85.57
2017-12-31T13:14:44.058Z,86.10
2017-12-31T13:15:43.992Z,85.94
2017-12-31T13:17:37.287Z,85.52
2017-12-31T13:18:37.199Z,85.71
2017-12-31T13:20:30.496Z,86.47
2017-12-31T13:21:30.403Z,85.90
2017-12-31T13:23:23.687Z,85.81
2017-12-31T13:24:23.608Z,86.57
2017-12-31T13:26:16.877Z,85.90
2017-12-31T13:27:16.813Z,85.52
2017-12-31T13:29:10.103Z,86.19
2017-12-31T13:30:10.020Z,85.71
2017-12-31T13:32:03.402Z,85.05
2017-12-31T13:33:03.313Z,84.95
2017-12-31T13:34:56.583Z,85.90
2017-12-31T13:35:56.521Z,85.81
2017-12-31T13:37:49.807Z,85.24
2017-12-31T13:38:49.726Z,85.62
2017-12-31T13:40:43.004Z,85.90
2017-12-31T13:41:42.940Z,85.24
2017-12-31T13:43:36.226Z,84.95
2017-12-31T13:44:36.140Z,85.14
2017-12-31T13:46:29.412Z,84.66
2017-12-31T13:47:29.350Z,85.14
2017-12-31T13:49:22.641Z,84.66
2017-12-31T13:50:22.562Z,84.66
2017-12-31T13:52:15.848Z,84.95
2017-12-31T13:53:15.767Z,84.85
2017-12-31T13:55:09.036Z,85.14
2017-12-31T13:56:08.970Z,84.76
2017-12-31T13:58:02.259Z,84.66
2017-12-31T13:59:02.175Z,84.85
2017-12-31T14:00:55.444Z,85.24
2017-12-31T14:01:55.379Z,85.14
2017-12-31T14:03:48.673Z,85.14
2017-12-31T14:04:48.587Z,85.33
2017-12-31T14:06:41.861Z,85.14
2017-12-31T14:07:41.796Z,85.14
2017-12-31T14:09:35.076Z,85.62
2017-12-31T14:10:34.990Z,85.24
2017-12-31T14:12:28.277Z,84.85
2017-12-31T14:13:28.194Z,84.38
2017-12-31T14:15:21.469Z,84.38
2017-12-31T14:16:21.404Z,83.80
2017-12-31T14:18:14.692Z,84.09
2017-12-31T14:19:14.613Z,83.99
2017-12-31T14:21:07.882Z,83.42
2017-12-31T14:22:07.812Z,83.51
2017-12-31T14:24:01.106Z,83.23
2017-12-31T14:25:01.019Z,82.94
2017-12-31T14:26:54.288Z,82.84
2017-12-31T14:27:54.223Z,82.56
2017-12-31T14:29:47.511Z,82.56
2017-12-31T14:30:47.431Z,82.56
2017-12-31T14:32:40.718Z,82.56
2017-12-31T14:33:40.636Z,82.56
2017-12-31T14:35:33.901Z,82.46
2017-12-31T14:36:33.840Z,82.56
2017-12-31T14:38:27.127Z,82.65
2017-12-31T14:39:27.043Z,82.94
2017-12-31T14:41:20.313Z,83.42
2017-12-31T14:42:20.246Z,83.99
2017-12-31T14:44:13.537Z,83.80
2017-12-31T14:45:13.455Z,83.61
2017-12-31T14:47:06.725Z,84.47
2017-12-31T14:48:06.659Z,84.95
2017-12-31T14:49:59.935Z,85.14
2017-12-31T14:50:59.854Z,85.19
2017-12-31T14:52:53.139Z,85.33
2017-12-31T14:53:53.055Z,85.24
2017-12-31T14:55:46.323Z,85.29
2017-12-31T14:56:46.260Z,85.33
2017-12-31T14:58:39.551Z,85.14
2017-12-31T14:59:39.462Z,85.14
2017-12-31T15:01:32.779Z,85.67
2017-12-31T15:02:32.670Z,85.86
2017-12-31T15:04:25.950Z,85.58
2017-12-31T15:05:25.873Z,85.48
2017-12-31T15:07:19.141Z,86.15
2017-12-31T15:08:19.082Z,86.67
2017-12-31T15:10:12.364Z,87.48
2017-12-31T15:11:12.281Z,87.68
2017-12-31T15:13:05.574Z,88.15
2017-12-31T15:14:05.483Z,87.68
2017-12-31T15:15:58.757Z,88.25
2017-12-31T15:16:58.690Z,88.25
2017-12-31T15:18:51.977Z,87.68
2017-12-31T15:19:51.896Z,88.06
2017-12-31T15:21:45.161Z,88.54
2017-12-31T15:22:45.096Z,87.87
2017-12-31T15:24:38.382Z,87.58
2017-12-31T15:25:38.303Z,88.15
2017-12-31T15:27:31.569Z,88.15
2017-12-31T15:28:31.501Z,87.87
2017-12-31T15:30:24.794Z,88.92
2017-12-31T15:31:24.705Z,88.92
2017-12-31T15:33:17.993Z,88.73
2017-12-31T15:34:17.910Z,89.20
2017-12-31T15:36:11.175Z,88.44
2017-12-31T15:37:11.114Z,88.92
2017-12-31T15:39:04.403Z,89.11
2017-12-31T15:40:04.320Z,89.01
2017-12-31T15:41:57.582Z,89.11
2017-12-31T15:42:57.520Z,88.82
2017-12-31T15:44:50.805Z,88.15
2017-12-31T15:45:50.721Z,88.25
2017-12-31T15:47:43.991Z,88.73
2017-12-31T15:48:43.924Z,89.11
2017-12-31T15:50:37.213Z,89.11
2017-12-31T15:51:37.127Z,89.64
2017-12-31T15:53:30.428Z,90.31
2017-12-31T15:54:30.339Z,90.02
2017-12-31T15:56:23.616Z,90.50
2017-12-31T15:57:23.545Z,91.16
2017-12-31T15:59:16.829Z,91.26
2017-12-31T16:00:16.747Z,91.45
2017-12-31T16:02:10.020Z,92.12
2017-12-31T16:03:09.949Z,91.83
2017-12-31T16:05:03.234Z,92.60
2017-12-31T16:06:03.149Z,92.50
2017-12-31T16:07:56.420Z,93.07
2017-12-31T16:08:56.355Z,93.07
2017-12-31T16:10:49.649Z,93.65
2017-12-31T16:11:49.566Z,94.07
2017-12-31T16:13:42.853Z,93.98
2017-12-31T16:14:42.768Z,94.84
2017-12-31T16:16:36.035Z,95.70
2017-12-31T16:17:35.971Z,96.56
2017-12-31T16:19:29.257Z,97.03
2017-12-31T16:20:29.173Z,97.51
2017-12-31T16:22:22.447Z,98.94
2017-12-31T16:23:22.377Z,99.71
2017-12-31T16:25:15.667Z,99.99
2017-12-31T16:26:15.582Z,99.99
2017-12-31T16:28:08.840Z,99.99
2017-12-31T16:29:08.770Z,99.99
2017-12-31T16:31:02.042Z,99.99
2017-12-31T16:32:01.962Z,99.99
2017-12-31T16:33:56.235Z,99.99
2017-12-31T16:34:56.150Z,99.99
2017-12-31T16:36:49.416Z,99.99
2017-12-31T16:37:49.349Z,99.99
2017-12-31T16:39:42.628Z,99.99
2017-12-31T16:40:42.544Z,99.99
2017-12-31T16:42:35.809Z,99.99
2017-12-31T16:43:35.753Z,99.99
2017-12-31T16:45:29.026Z,99.99
2017-12-31T16:46:28.942Z,99.99
2017-12-31T16:48:22.194Z,99.99
2017-12-31T16:49:22.129Z,99.99
2017-12-31T16:51:15.521Z,99.99
2017-12-31T16:52:15.329Z,99.99
2017-12-31T16:54:08.609Z,99.99
2017-12-31T16:55:08.524Z,99.99
2017-12-31T16:57:01.898Z,99.99
2017-12-31T16:58:01.735Z,99.99
2017-12-31T16:59:55.109Z,99.99
2017-12-31T17:00:54.904Z,99.99
2017-12-31T17:02:48.173Z,99.99
2017-12-31T17:03:48.106Z,99.99
2017-12-31T17:05:41.399Z,99.99
2017-12-31T17:06:41.312Z,99.99
2017-12-31T17:08:34.576Z,99.99
2017-12-31T17:09:34.502Z,99.99
2017-12-31T17:11:27.791Z,99.99
2017-12-31T17:12:27.708Z,99.99
2017-12-31T17:14:21.095Z,99.99
2017-12-31T17:15:20.891Z,99.99
2017-12-31T17:17:14.155Z,99.99
2017-12-31T17:18:14.090Z,99.99
2017-12-31T17:20:07.394Z,99.99
2017-12-31T17:21:07.311Z,99.99
2017-12-31T17:23:00.684Z,99.99
2017-12-31T17:24:00.508Z,99.99
2017-12-31T17:25:53.802Z,99.99
2017-12-31T17:26:53.706Z,99.99
2017-12-31T17:28:47.077Z,99.99
2017-12-31T17:29:46.905Z,99.99
2017-12-31T17:31:40.182Z,99.99
2017-12-31T17:32:40.098Z,99.99
2017-12-31T17:34:33.402Z,99.99
2017-12-31T17:35:33.310Z,99.99
2017-12-31T17:37:26.563Z,99.99
2017-12-31T17:38:26.495Z,99.99
2017-12-31T17:40:20.883Z,99.99
2017-12-31T17:41:20.682Z,99.99
2017-12-31T17:43:13.946Z,99.99
2017-12-31T17:44:13.875Z,99.99
2017-12-31T17:46:07.271Z,99.99
2017-12-31T17:47:07.071Z,99.99
2017-12-31T17:49:00.334Z,99.99
2017-12-31T17:50:00.268Z,99.99
2017-12-31T17:51:53.659Z,99.99
2017-12-31T17:52:53.465Z,99.99
2017-12-31T17:54:46.852Z,99.99
2017-12-31T17:55:46.660Z,99.99
2017-12-31T17:57:39.912Z,99.99
2017-12-31T17:58:39.844Z,99.99
2017-12-31T18:00:34.125Z,99.99
2017-12-31T18:01:34.046Z,99.99
2017-12-31T18:03:27.377Z,99.99
2017-12-31T18:04:27.311Z,99.99
2017-12-31T18:06:20.591Z,99.99
2017-12-31T18:07:20.504Z,99.99
2017-12-31T18:09:13.769Z,99.99
2017-12-31T18:10:13.701Z,99.99
2017-12-31T18:12:06.988Z,99.99
2017-12-31T18:13:06.892Z,99.99
2017-12-31T18:15:00.174Z,99.99
2017-12-31T18:16:00.090Z,99.99
2017-12-31T18:17:53.374Z,99.99
2017-12-31T18:18:53.305Z,99.99
2017-12-31T18:20:46.588Z,99.99
2017-12-31T18:21:46.501Z,99.99
2017-12-31T18:23:39.764Z,99.99
2017-12-31T18:24:39.701Z,99.99
2017-12-31T18:26:32.971Z,99.99
2017-12-31T18:27:32.880Z,99.99
2017-12-31T18:29:26.136Z,99.99
2017-12-31T18:30:26.065Z,99.99
2017-12-31T18:32:19.453Z,99.99
2017-12-31T18:33:19.309Z,99.99
2017-12-31T18:35:12.594Z,99.99